Time,TemperatureF,DewpointF,PressureIn,WindDirection,WindDirectionDegrees,WindSpeedMPH,WindSpeedGustMPH,Humidity,HourlyPrecipIn,Conditions,Clouds,dailyrainin,SoftwareType,DateUTC
2013-09-13 00:13:00,56.0,50.0,-100.00,ESE,110,4.0,5.0,79,-99.99,,,-99.99,,2013-09-13 05:13:00,
2013-09-13 00:22:00,56.0,50.0,-100.00,ESE,110,4.0,5.0,79,-99.99,,,-99.99,,2013-09-13 05:22:00,
2013-09-13 00:33:00,56.0,50.0,-100.00,ESE,110,4.0,5.0,79,-99.99,,,-99.99,,2013-09-13 05:33:00,
2013-09-13 01:12:00,56.0,51.0,-100.00,SSE,150,4.0,5.0,84,-99.99,,,-99.99,,2013-09-13 06:12:00,
2013-09-13 01:22:00,56.0,51.0,-100.00,SSE,150,4.0,5.0,84,-99.99,,,-99.99,,2013-09-13 06:22:00,
2013-09-13 01:42:00,55.0,50.0,-100.00,SE,145,4.0,4.0,84,-99.99,,,-99.99,,2013-09-13 06:42:00,
2013-09-13 01:52:00,55.0,50.0,-100.00,SE,145,4.0,4.0,84,-99.99,,,-99.99,,2013-09-13 06:52:00,
2013-09-13 02:11:00,51.0,48.0,-100.00,South,170,2.0,4.0,89,-99.99,,,-99.99,,2013-09-13 07:11:00,
2013-09-13 02:22:00,51.0,48.0,-100.00,South,170,2.0,4.0,89,-99.99,,,-99.99,,2013-09-13 07:22:00,
2013-09-13 02:43:00,51.0,48.0,-100.00,South,170,2.0,4.0,92,-99.99,,,-99.99,,2013-09-13 07:43:00,
2013-09-13 02:52:00,51.0,48.0,-100.00,South,170,2.0,4.0,92,-99.99,,,-99.99,,2013-09-13 07:52:00,
2013-09-13 03:11:00,50.0,48.0,-100.00,South,185,4.0,5.0,93,-99.99,,,-99.99,,2013-09-13 08:11:00,
2013-09-13 03:22:00,50.0,48.0,-100.00,South,185,4.0,5.0,93,-99.99,,,-99.99,,2013-09-13 08:22:00,
2013-09-13 03:42:00,51.0,50.0,-100.00,SE,145,3.0,6.0,95,-99.99,,,-99.99,,2013-09-13 08:42:00,
2013-09-13 03:52:00,51.0,50.0,-100.00,SE,145,3.0,6.0,95,-99.99,,,-99.99,,2013-09-13 08:52:00,
2013-09-13 04:12:00,51.0,49.0,-100.00,South,175,4.0,7.0,93,-99.99,,,-99.99,,2013-09-13 09:12:00,
2013-09-13 04:21:00,51.0,49.0,-100.00,South,175,4.0,7.0,93,-99.99,,,-99.99,,2013-09-13 09:21:00,
2013-09-13 04:43:00,51.0,49.0,-100.00,South,180,4.0,7.0,92,-99.99,,,-99.99,,2013-09-13 09:43:00,
2013-09-13 04:54:00,51.0,49.0,-100.00,South,180,4.0,7.0,92,-99.99,,,-99.99,,2013-09-13 09:54:00,
2013-09-13 05:13:00,50.0,48.0,-100.00,South,180,4.0,6.0,93,-99.99,,,-99.99,,2013-09-13 10:13:00,
2013-09-13 05:23:00,50.0,48.0,-100.00,South,180,4.0,6.0,93,-99.99,,,-99.99,,2013-09-13 10:23:00,
2013-09-13 05:42:00,47.0,46.0,-100.00,SSW,195,4.0,6.0,96,-99.99,,,-99.99,,2013-09-13 10:42:00,
2013-09-13 05:53:00,47.0,46.0,-100.00,SSW,195,4.0,6.0,96,-99.99,,,-99.99,,2013-09-13 10:53:00,
2013-09-13 06:12:00,50.0,49.0,-100.00,South,180,4.0,6.0,97,-99.99,,,-99.99,,2013-09-13 11:12:00,
2013-09-13 06:22:00,50.0,49.0,-100.00,South,180,4.0,6.0,97,-99.99,,,-99.99,,2013-09-13 11:22:00,
2013-09-13 06:33:00,50.0,49.0,-100.00,South,180,4.0,6.0,97,-99.99,,,-99.99,,2013-09-13 11:33:00,
2013-09-13 07:12:00,51.0,50.0,-100.00,South,170,4.0,7.0,96,-99.99,,,-99.99,,2013-09-13 12:12:00,
2013-09-13 07:22:00,51.0,50.0,-100.00,South,170,4.0,7.0,96,-99.99,,,-99.99,,2013-09-13 12:22:00,
2013-09-13 07:42:00,51.0,49.0,-100.00,SSE,165,6.0,7.0,94,-99.99,,,-99.99,,2013-09-13 12:42:00,
2013-09-13 08:52:00,52.0,50.0,-100.00,SSE,165,5.0,7.0,91,-99.99,,,-99.99,,2013-09-13 13:52:00,
2013-09-13 09:11:00,54.0,51.0,-100.00,South,180,4.0,7.0,88,-99.99,,,-99.99,,2013-09-13 14:11:00,
2013-09-13 09:22:00,54.0,51.0,-100.00,South,180,4.0,7.0,88,-99.99,,,-99.99,,2013-09-13 14:22:00,
2013-09-13 09:42:00,56.0,51.0,-100.00,South,175,6.0,11.0,82,-99.99,,,-99.99,,2013-09-13 14:42:00,
2013-09-13 09:52:00,56.0,51.0,-100.00,South,175,6.0,11.0,82,-99.99,,,-99.99,,2013-09-13 14:52:00,
2013-09-13 10:11:00,59.0,51.0,-100.00,SSW,195,7.0,12.0,76,-99.99,,,-99.99,,2013-09-13 15:11:00,
2013-09-13 10:22:00,59.0,51.0,-100.00,SSW,195,7.0,12.0,76,-99.99,,,-99.99,,2013-09-13 15:22:00,
2013-09-13 10:43:00,62.0,52.0,-100.00,SSW,195,7.0,12.0,71,-99.99,,,-99.99,,2013-09-13 15:43:00,
2013-09-13 10:53:00,62.0,52.0,-100.00,SSW,195,7.0,12.0,71,-99.99,,,-99.99,,2013-09-13 15:53:00,
2013-09-13 11:12:00,65.0,51.0,-100.00,South,185,9.0,16.0,61,-99.99,,,-99.99,,2013-09-13 16:12:00,
2013-09-13 11:24:00,65.0,51.0,-100.00,South,185,9.0,16.0,61,-99.99,,,-99.99,,2013-09-13 16:24:00,
2013-09-13 11:43:00,67.0,50.0,-100.00,SSW,200,9.0,17.0,54,-99.99,,,-99.99,,2013-09-13 16:43:00,
2013-09-13 11:54:00,67.0,50.0,-100.00,SSW,200,9.0,17.0,54,-99.99,,,-99.99,,2013-09-13 16:54:00,
2013-09-13 12:04:00,67.0,50.0,-100.00,SSW,200,9.0,17.0,54,-99.99,,,-99.99,,2013-09-13 17:04:00,
2013-09-13 13:12:00,72.0,51.0,-100.00,South,185,11.0,21.0,49,-99.99,,,-99.99,,2013-09-13 18:12:00,
2013-09-13 13:22:00,72.0,51.0,-100.00,South,185,11.0,21.0,49,-99.99,,,-99.99,,2013-09-13 18:22:00,
2013-09-13 13:42:00,72.0,51.0,-100.00,South,180,11.0,20.0,47,-99.99,,,-99.99,,2013-09-13 18:42:00,
2013-09-13 13:52:00,72.0,51.0,-100.00,South,180,11.0,20.0,47,-99.99,,,-99.99,,2013-09-13 18:52:00,
2013-09-13 14:11:00,74.0,51.0,-100.00,SSW,200,12.0,19.0,45,-99.99,,,-99.99,,2013-09-13 19:11:00,
2013-09-13 14:22:00,74.0,51.0,-100.00,SSW,200,12.0,19.0,45,-99.99,,,-99.99,,2013-09-13 19:22:00,
2013-09-13 14:32:00,74.0,51.0,-100.00,SSW,200,12.0,19.0,45,-99.99,,,-99.99,,2013-09-13 19:32:00,
2013-09-13 15:11:00,75.0,50.0,-100.00,South,185,14.0,28.0,42,-99.99,,,-99.99,,2013-09-13 20:11:00,
2013-09-13 15:22:00,75.0,50.0,-100.00,South,185,14.0,28.0,42,-99.99,,,-99.99,,2013-09-13 20:22:00,
2013-09-13 15:43:00,76.0,50.0,-100.00,South,180,12.0,22.0,40,-99.99,,,-99.99,,2013-09-13 20:43:00,
2013-09-13 15:52:00,76.0,50.0,-100.00,South,180,12.0,22.0,40,-99.99,,,-99.99,,2013-09-13 20:52:00,
2013-09-13 16:12:00,76.0,49.0,-100.00,SSW,200,14.0,22.0,39,-99.99,,,-99.99,,2013-09-13 21:12:00,
2013-09-13 16:22:00,76.0,49.0,-100.00,SSW,200,14.0,22.0,39,-99.99,,,-99.99,,2013-09-13 21:22:00,
2013-09-13 16:44:00,77.0,49.0,-100.00,South,170,14.0,22.0,38,-99.99,,,-99.99,,2013-09-13 21:44:00,
2013-09-13 16:54:00,77.0,49.0,-100.00,South,170,14.0,22.0,38,-99.99,,,-99.99,,2013-09-13 21:54:00,
2013-09-13 17:13:00,77.0,49.0,-100.00,SSW,200,15.0,22.0,38,-99.99,,,-99.99,,2013-09-13 22:13:00,
2013-09-13 17:24:00,77.0,49.0,-100.00,SSW,200,15.0,22.0,38,-99.99,,,-99.99,,2013-09-13 22:24:00,
2013-09-13 17:43:00,77.0,49.0,-100.00,SSW,195,15.0,25.0,37,-99.99,,,-99.99,,2013-09-13 22:43:00,
2013-09-13 17:53:00,77.0,49.0,-100.00,SSW,195,15.0,25.0,37,-99.99,,,-99.99,,2013-09-13 22:53:00,
2013-09-13 18:12:00,77.0,49.0,-100.00,SSW,205,11.0,18.0,37,-99.99,,,-99.99,,2013-09-13 23:12:00,
2013-09-13 18:22:00,77.0,49.0,-100.00,SSW,205,11.0,18.0,37,-99.99,,,-99.99,,2013-09-13 23:22:00,
2013-09-13 18:43:00,77.0,49.0,-100.00,SSW,195,12.0,21.0,37,-99.99,,,-99.99,,2013-09-13 23:43:00,
2013-09-13 18:53:00,77.0,49.0,-100.00,SSW,195,12.0,21.0,37,-99.99,,,-99.99,,2013-09-13 23:53:00,
2013-09-13 19:12:00,76.0,49.0,-100.00,South,185,12.0,21.0,38,-99.99,,,-99.99,,2013-09-14 00:12:00,
2013-09-13 19:22:00,76.0,49.0,-100.00,South,185,12.0,21.0,38,-99.99,,,-99.99,,2013-09-14 00:22:00,
2013-09-13 19:42:00,75.0,49.0,-100.00,South,170,11.0,15.0,40,-99.99,,,-99.99,,2013-09-14 00:42:00,
2013-09-13 19:52:00,75.0,49.0,-100.00,South,170,11.0,15.0,40,-99.99,,,-99.99,,2013-09-14 00:52:00,
2013-09-13 20:11:00,73.0,49.0,-100.00,South,175,9.0,16.0,44,-99.99,,,-99.99,,2013-09-14 01:11:00,
2013-09-13 20:22:00,73.0,49.0,-100.00,South,175,9.0,16.0,44,-99.99,,,-99.99,,2013-09-14 01:22:00,
2013-09-13 20:42:00,71.0,51.0,-100.00,South,175,9.0,14.0,49,-99.99,,,-99.99,,2013-09-14 01:42:00,
2013-09-13 20:52:00,71.0,51.0,-100.00,South,175,9.0,14.0,49,-99.99,,,-99.99,,2013-09-14 01:52:00,
2013-09-13 21:12:00,70.0,51.0,-100.00,South,170,10.0,14.0,52,-99.99,,,-99.99,,2013-09-14 02:12:00,
2013-09-13 21:22:00,70.0,51.0,-100.00,South,170,10.0,14.0,52,-99.99,,,-99.99,,2013-09-14 02:22:00,
2013-09-13 21:42:00,68.0,51.0,-100.00,South,170,10.0,17.0,55,-99.99,,,-99.99,,2013-09-14 02:42:00,
2013-09-13 21:52:00,68.0,51.0,-100.00,South,170,10.0,17.0,55,-99.99,,,-99.99,,2013-09-14 02:52:00,
2013-09-13 22:12:00,67.0,52.0,-100.00,South,180,9.0,18.0,57,-99.99,,,-99.99,,2013-09-14 03:12:00,
2013-09-13 22:22:00,67.0,52.0,-100.00,South,180,9.0,18.0,57,-99.99,,,-99.99,,2013-09-14 03:22:00,
2013-09-13 22:45:00,67.0,51.0,-100.00,South,180,8.0,17.0,58,-99.99,,,-99.99,,2013-09-14 03:45:00,
2013-09-13 22:55:00,67.0,51.0,-100.00,South,180,8.0,17.0,58,-99.99,,,-99.99,,2013-09-14 03:55:00,
2013-09-13 23:14:00,65.0,52.0,-100.00,South,175,9.0,16.0,62,-99.99,,,-99.99,,2013-09-14 04:14:00,
2013-09-13 23:24:00,65.0,52.0,-100.00,South,175,9.0,16.0,62,-99.99,,,-99.99,,2013-09-14 04:24:00,
2013-09-13 23:43:00,64.0,52.0,-100.00,South,175,10.0,19.0,64,-99.99,,,-99.99,,2013-09-14 04:43:00,
2013-09-13 23:54:00,64.0,52.0,-100.00,South,175,10.0,19.0,64,-99.99,,,-99.99,,2013-09-14 04:54:00,